Share

Tiptonville, TN

KTNUNION3 Elev 354 ft | 36.41 °N, 89.05 °W | Change Station

Current weather conditions updated 2 minutes ago

Clear
Clear
62.7 °F
Feels Like 62.7 °F
N
6.0
Wind Variable Wind from SSW
Gusts 14.0 mph
Sunrise 6:21 AM
Sunset 7:33 PM
Moon Waning Gibbous

Today is forecast to be Warmer than yesterday.

Pressure 30.31 in
Visibility 10.0 miles
Clouds Clear
Dew Point 45 °F
Humidity 52%
Rainfall 0.00 in
Snow Depth Not available.
UV 5 out of 16
Pollen 9.70 out of 12
Air Quality Not available.
Flu Activity Local Activity
METAR KHKA 171453Z AUTO 18013KT 10SM CLR 14/05 A3030 RMK AO2 SLP262 T01390050 51016 $

More Conditions Fewer Conditions

Pressure 30.31 in
Visibility 10.0 miles
Clouds Clear
Dew Point 45 °F
Humidity 52%
Rainfall 0.00 in
Snow Depth Not available.
UV 5 out of 16
Pollen 9.70 out of 12
Air Quality Not available.
Flu Activity Local Activity
METAR KHKA 171453Z AUTO 18013KT 10SM CLR 14/05 A3030 RMK AO2 SLP262 T01390050 51016 $

More Conditions Fewer Conditions

10-Day Forecast

Almanac

Astronomy

Apr. 17, 2014 Rise Set
Actual Time 6:21 AM CDT 7:33 PM CDT
Civil Twilight 5:55 AM CDT 8:00 PM CDT
Nautical Twilight 5:23 AM CDT 8:32 PM CDT
Astronomical Twilight 4:50 AM CDT 9:05 PM CDT
Moon 10:15 PM CDT 7:56 AM CDT
Length of Visible Light 14h 05m
Length of Day
13h 12m
Tomorrow will be 2m 10s longer.
Waning Gibbous, 93% of the Moon is Illuminated
Today
Waning Gibbous
Apr 22
Last Quarter
Apr 29
New
May 6
First Quarter
May 14
Full

Today's Extremes

State Highs State Lows

Community

  • New Day
    New Day
  • Lake Michigan Sunrise
    Lake Michigan Sunrise
  • sunset from izmir, narlıdere
    sunset from izmir, narlıdere
  • oregon cherry
    oregon cherry
  • Sunset over the Bay
    Sunset over the Bay

WunderPhotos

Upload Photos

1,702,067 photos uploaded!

Nearby

Snow Depth

Station Depth Elevation
No new snow has been reported.

Coastal Water Temperatures

Place Temperature
No Stations Reporting

Earthquake Activity

City Distance Mag. Time & Date
No recent earthquake activity has been reported nearby.
Minimum magnitude displayed is 2.5.

Nearby Weather Stations

Station Location Temp. Dew Point Humidity Wind Precip. Elev Updated Type
Union City, TN 62.7 °F 45 °F 52% SSW  at  6.0 mph 0.00 in / hr 354 ft 11:50 AM CDT Normal

Show More Stations Show Fewer Stations

What do you think?

We're not finished. Please let us know what you like, what you don't like, and what you are still missing.